sensor_id;sensor_type;location;lat;lon;timestamp;P1;durP1;ratioP1;P2;durP2;ratioP2
30472;SDS011;17263;48.160;11.452;2023-04-25T00:01:46;3.77;;;2.70;;
30472;SDS011;17263;48.160;11.452;2023-04-25T00:04:12;3.70;;;2.70;;
30472;SDS011;17263;48.160;11.452;2023-04-25T00:06:38;3.00;;;2.57;;
30472;SDS011;17263;48.160;11.452;2023-04-25T00:09:05;2.77;;;2.10;;
30472;SDS011;17263;48.160;11.452;2023-04-25T00:11:36;2.57;;;2.17;;
30472;SDS011;17263;48.160;11.452;2023-04-25T00:14:03;2.20;;;2.00;;
30472;SDS011;17263;48.160;11.452;2023-04-25T00:16:29;2.40;;;2.03;;
30472;SDS011;17263;48.160;11.452;2023-04-25T00:18:59;2.93;;;2.03;;
30472;SDS011;17263;48.160;11.452;2023-04-25T00:21:26;3.17;;;2.20;;
30472;SDS011;17263;48.160;11.452;2023-04-25T00:23:53;4.13;;;2.10;;
30472;SDS011;17263;48.160;11.452;2023-04-25T00:26:20;2.63;;;2.00;;
30472;SDS011;17263;48.160;11.452;2023-04-25T00:28:46;2.10;;;1.90;;
30472;SDS011;17263;48.160;11.452;2023-04-25T00:31:13;4.40;;;2.27;;
30472;SDS011;17263;48.160;11.452;2023-04-25T00:33:39;2.30;;;1.97;;
30472;SDS011;17263;48.160;11.452;2023-04-25T00:36:06;3.30;;;2.23;;
30472;SDS011;17263;48.160;11.452;2023-04-25T00:38:32;3.80;;;2.60;;
30472;SDS011;17263;48.160;11.452;2023-04-25T00:40:58;2.30;;;2.10;;
30472;SDS011;17263;48.160;11.452;2023-04-25T00:43:27;3.00;;;2.17;;
30472;SDS011;17263;48.160;11.452;2023-04-25T00:45:54;3.23;;;2.10;;
30472;SDS011;17263;48.160;11.452;2023-04-25T00:48:22;3.03;;;2.13;;
30472;SDS011;17263;48.160;11.452;2023-04-25T00:50:53;2.40;;;2.10;;
30472;SDS011;17263;48.160;11.452;2023-04-25T00:53:21;2.53;;;2.30;;
30472;SDS011;17263;48.160;11.452;2023-04-25T00:55:48;4.03;;;2.20;;
30472;SDS011;17263;48.160;11.452;2023-04-25T00:58:16;2.20;;;2.00;;
30472;SDS011;17263;48.160;11.452;2023-04-25T01:00:47;3.77;;;2.30;;
30472;SDS011;17263;48.160;11.452;2023-04-25T01:03:16;3.40;;;2.40;;
30472;SDS011;17263;48.160;11.452;2023-04-25T01:05:45;2.30;;;2.10;;
30472;SDS011;17263;48.160;11.452;2023-04-25T01:08:12;4.20;;;2.47;;
30472;SDS011;17263;48.160;11.452;2023-04-25T01:10:38;3.53;;;2.13;;
30472;SDS011;17263;48.160;11.452;2023-04-25T01:13:05;2.90;;;2.60;;
30472;SDS011;17263;48.160;11.452;2023-04-25T01:15:32;2.23;;;2.03;;
30472;SDS011;17263;48.160;11.452;2023-04-25T01:17:58;2.83;;;2.30;;
30472;SDS011;17263;48.160;11.452;2023-04-25T01:20:26;2.47;;;2.17;;
30472;SDS011;17263;48.160;11.452;2023-04-25T01:22:54;3.83;;;2.20;;
30472;SDS011;17263;48.160;11.452;2023-04-25T01:25:21;2.50;;;2.20;;
30472;SDS011;17263;48.160;11.452;2023-04-25T01:27:47;2.93;;;1.97;;
30472;SDS011;17263;48.160;11.452;2023-04-25T01:30:14;2.73;;;2.20;;
30472;SDS011;17263;48.160;11.452;2023-04-25T01:32:41;3.60;;;2.87;;
30472;SDS011;17263;48.160;11.452;2023-04-25T01:35:08;2.77;;;2.47;;
30472;SDS011;17263;48.160;11.452;2023-04-25T01:37:37;4.23;;;2.33;;
30472;SDS011;17263;48.160;11.452;2023-04-25T01:40:07;3.03;;;2.30;;
30472;SDS011;17263;48.160;11.452;2023-04-25T01:42:40;3.27;;;2.40;;
30472;SDS011;17263;48.160;11.452;2023-04-25T01:45:08;3.43;;;2.10;;
30472;SDS011;17263;48.160;11.452;2023-04-25T01:47:36;4.10;;;2.30;;
30472;SDS011;17263;48.160;11.452;2023-04-25T01:50:03;2.60;;;2.33;;
30472;SDS011;17263;48.160;11.452;2023-04-25T01:52:30;3.03;;;2.20;;
30472;SDS011;17263;48.160;11.452;2023-04-25T01:54:56;3.27;;;2.33;;
30472;SDS011;17263;48.160;11.452;2023-04-25T01:57:23;3.63;;;2.30;;
30472;SDS011;17263;48.160;11.452;2023-04-25T01:59:49;2.10;;;1.90;;
30472;SDS011;17263;48.160;11.452;2023-04-25T02:02:15;4.03;;;2.17;;
30472;SDS011;17263;48.160;11.452;2023-04-25T02:04:41;2.50;;;2.20;;
30472;SDS011;17263;48.160;11.452;2023-04-25T02:07:07;2.50;;;2.30;;
30472;SDS011;17263;48.160;11.452;2023-04-25T02:09:33;3.50;;;2.30;;
30472;SDS011;17263;48.160;11.452;2023-04-25T02:11:59;2.20;;;2.00;;
30472;SDS011;17263;48.160;11.452;2023-04-25T02:14:25;2.73;;;2.03;;
30472;SDS011;17263;48.160;11.452;2023-04-25T02:16:52;4.60;;;2.67;;
30472;SDS011;17263;48.160;11.452;2023-04-25T02:19:18;3.67;;;2.27;;
30472;SDS011;17263;48.160;11.452;2023-04-25T02:21:44;4.03;;;2.43;;
30472;SDS011;17263;48.160;11.452;2023-04-25T02:24:10;3.90;;;2.40;;
30472;SDS011;17263;48.160;11.452;2023-04-25T02:26:36;4.83;;;2.30;;
30472;SDS011;17263;48.160;11.452;2023-04-25T02:29:02;4.57;;;2.30;;
30472;SDS011;17263;48.160;11.452;2023-04-25T02:31:28;2.60;;;2.40;;
30472;SDS011;17263;48.160;11.452;2023-04-25T02:33:54;2.60;;;2.33;;
30472;SDS011;17263;48.160;11.452;2023-04-25T02:36:20;2.77;;;2.27;;
30472;SDS011;17263;48.160;11.452;2023-04-25T02:38:46;2.67;;;2.10;;
30472;SDS011;17263;48.160;11.452;2023-04-25T02:41:12;2.57;;;2.37;;
30472;SDS011;17263;48.160;11.452;2023-04-25T02:43:38;4.43;;;2.40;;
30472;SDS011;17263;48.160;11.452;2023-04-25T02:46:04;3.70;;;2.13;;
30472;SDS011;17263;48.160;11.452;2023-04-25T02:48:30;5.53;;;2.60;;
30472;SDS011;17263;48.160;11.452;2023-04-25T02:50:56;2.50;;;2.30;;
30472;SDS011;17263;48.160;11.452;2023-04-25T02:53:22;2.90;;;2.27;;
30472;SDS011;17263;48.160;11.452;2023-04-25T02:55:48;3.20;;;2.10;;
30472;SDS011;17263;48.160;11.452;2023-04-25T02:58:14;3.50;;;2.63;;
30472;SDS011;17263;48.160;11.452;2023-04-25T03:00:41;2.70;;;2.40;;
30472;SDS011;17263;48.160;11.452;2023-04-25T03:03:07;4.03;;;2.20;;
30472;SDS011;17263;48.160;11.452;2023-04-25T03:05:33;2.80;;;2.37;;
30472;SDS011;17263;48.160;11.452;2023-04-25T03:07:59;2.50;;;2.27;;
30472;SDS011;17263;48.160;11.452;2023-04-25T03:10:25;4.53;;;2.40;;
30472;SDS011;17263;48.160;11.452;2023-04-25T03:12:51;3.70;;;2.67;;
30472;SDS011;17263;48.160;11.452;2023-04-25T03:15:17;3.00;;;1.90;;
30472;SDS011;17263;48.160;11.452;2023-04-25T03:17:44;2.97;;;2.07;;
30472;SDS011;17263;48.160;11.452;2023-04-25T03:20:10;1.90;;;1.73;;
30472;SDS011;17263;48.160;11.452;2023-04-25T03:22:37;2.30;;;1.50;;
30472;SDS011;17263;48.160;11.452;2023-04-25T03:25:03;3.20;;;1.90;;
30472;SDS011;17263;48.160;11.452;2023-04-25T03:27:30;2.20;;;2.00;;
30472;SDS011;17263;48.160;11.452;2023-04-25T03:29:56;4.87;;;2.13;;
30472;SDS011;17263;48.160;11.452;2023-04-25T03:32:22;3.90;;;2.23;;
30472;SDS011;17263;48.160;11.452;2023-04-25T03:34:48;4.90;;;2.00;;
30472;SDS011;17263;48.160;11.452;2023-04-25T03:37:14;2.20;;;2.00;;
30472;SDS011;17263;48.160;11.452;2023-04-25T03:39:40;2.37;;;2.00;;
30472;SDS011;17263;48.160;11.452;2023-04-25T03:42:06;3.87;;;1.90;;
30472;SDS011;17263;48.160;11.452;2023-04-25T03:44:32;2.20;;;1.93;;
30472;SDS011;17263;48.160;11.452;2023-04-25T03:46:58;2.27;;;2.07;;
30472;SDS011;17263;48.160;11.452;2023-04-25T03:49:24;3.00;;;1.73;;
30472;SDS011;17263;48.160;11.452;2023-04-25T03:51:50;3.30;;;2.10;;
30472;SDS011;17263;48.160;11.452;2023-04-25T03:54:16;1.93;;;1.70;;
30472;SDS011;17263;48.160;11.452;2023-04-25T03:56:42;2.07;;;1.80;;
30472;SDS011;17263;48.160;11.452;2023-04-25T03:59:08;1.77;;;1.50;;
30472;SDS011;17263;48.160;11.452;2023-04-25T04:01:34;3.03;;;2.00;;
30472;SDS011;17263;48.160;11.452;2023-04-25T04:04:00;3.20;;;1.70;;
30472;SDS011;17263;48.160;11.452;2023-04-25T04:06:26;2.73;;;1.70;;
30472;SDS011;17263;48.160;11.452;2023-04-25T04:08:52;3.03;;;1.80;;
30472;SDS011;17263;48.160;11.452;2023-04-25T04:11:19;3.00;;;1.80;;
30472;SDS011;17263;48.160;11.452;2023-04-25T04:13:45;2.07;;;1.60;;
30472;SDS011;17263;48.160;11.452;2023-04-25T04:16:11;2.93;;;1.70;;
30472;SDS011;17263;48.160;11.452;2023-04-25T04:18:37;1.90;;;1.57;;
30472;SDS011;17263;48.160;11.452;2023-04-25T04:21:04;3.70;;;1.80;;
30472;SDS011;17263;48.160;11.452;2023-04-25T04:23:30;4.50;;;1.80;;
30472;SDS011;17263;48.160;11.452;2023-04-25T04:25:56;4.07;;;2.00;;
30472;SDS011;17263;48.160;11.452;2023-04-25T04:28:22;3.20;;;2.10;;
30472;SDS011;17263;48.160;11.452;2023-04-25T04:30:48;3.60;;;2.17;;
30472;SDS011;17263;48.160;11.452;2023-04-25T04:33:16;3.20;;;1.80;;
30472;SDS011;17263;48.160;11.452;2023-04-25T04:35:44;4.37;;;1.80;;
30472;SDS011;17263;48.160;11.452;2023-04-25T04:38:10;3.23;;;1.80;;
30472;SDS011;17263;48.160;11.452;2023-04-25T04:40:37;2.17;;;1.83;;
30472;SDS011;17263;48.160;11.452;2023-04-25T04:43:03;2.27;;;1.70;;
30472;SDS011;17263;48.160;11.452;2023-04-25T04:45:29;3.97;;;2.53;;
30472;SDS011;17263;48.160;11.452;2023-04-25T04:47:55;4.50;;;2.00;;
30472;SDS011;17263;48.160;11.452;2023-04-25T04:50:21;2.33;;;1.87;;
30472;SDS011;17263;48.160;11.452;2023-04-25T04:52:47;2.10;;;1.90;;
30472;SDS011;17263;48.160;11.452;2023-04-25T04:55:13;3.70;;;2.30;;
30472;SDS011;17263;48.160;11.452;2023-04-25T04:57:39;3.70;;;1.77;;
30472;SDS011;17263;48.160;11.452;2023-04-25T05:00:05;4.07;;;2.23;;
30472;SDS011;17263;48.160;11.452;2023-04-25T05:02:36;1.90;;;1.80;;
30472;SDS011;17263;48.160;11.452;2023-04-25T05:05:04;2.53;;;1.90;;
30472;SDS011;17263;48.160;11.452;2023-04-25T05:07:31;3.37;;;2.10;;
30472;SDS011;17263;48.160;11.452;2023-04-25T05:09:57;3.83;;;2.07;;
30472;SDS011;17263;48.160;11.452;2023-04-25T05:12:23;2.00;;;1.80;;
30472;SDS011;17263;48.160;11.452;2023-04-25T05:14:49;3.47;;;2.00;;
30472;SDS011;17263;48.160;11.452;2023-04-25T05:17:15;4.33;;;2.20;;
30472;SDS011;17263;48.160;11.452;2023-04-25T05:19:41;2.63;;;2.07;;
30472;SDS011;17263;48.160;11.452;2023-04-25T05:22:07;3.03;;;2.30;;
30472;SDS011;17263;48.160;11.452;2023-04-25T05:24:33;4.33;;;2.33;;
30472;SDS011;17263;48.160;11.452;2023-04-25T05:26:59;3.17;;;2.20;;
30472;SDS011;17263;48.160;11.452;2023-04-25T05:29:25;4.23;;;2.43;;
30472;SDS011;17263;48.160;11.452;2023-04-25T05:31:51;4.13;;;2.27;;
30472;SDS011;17263;48.160;11.452;2023-04-25T05:34:18;3.83;;;2.50;;
30472;SDS011;17263;48.160;11.452;2023-04-25T05:36:44;3.57;;;1.97;;
30472;SDS011;17263;48.160;11.452;2023-04-25T05:39:14;5.07;;;2.97;;
30472;SDS011;17263;48.160;11.452;2023-04-25T05:41:43;5.00;;;2.33;;
30472;SDS011;17263;48.160;11.452;2023-04-25T05:44:09;3.93;;;2.60;;
30472;SDS011;17263;48.160;11.452;2023-04-25T05:46:36;5.00;;;2.40;;
30472;SDS011;17263;48.160;11.452;2023-04-25T05:49:02;6.03;;;2.77;;
30472;SDS011;17263;48.160;11.452;2023-04-25T05:51:28;6.40;;;3.40;;
30472;SDS011;17263;48.160;11.452;2023-04-25T05:53:54;4.43;;;2.67;;
30472;SDS011;17263;48.160;11.452;2023-04-25T05:56:20;3.60;;;2.50;;
30472;SDS011;17263;48.160;11.452;2023-04-25T05:58:46;7.53;;;2.80;;
30472;SDS011;17263;48.160;11.452;2023-04-25T06:01:12;9.83;;;3.00;;
30472;SDS011;17263;48.160;11.452;2023-04-25T06:03:38;4.30;;;2.70;;
30472;SDS011;17263;48.160;11.452;2023-04-25T06:06:04;3.53;;;2.40;;
30472;SDS011;17263;48.160;11.452;2023-04-25T06:08:31;3.10;;;2.40;;
30472;SDS011;17263;48.160;11.452;2023-04-25T06:10:57;3.10;;;2.00;;
30472;SDS011;17263;48.160;11.452;2023-04-25T06:13:23;3.83;;;2.20;;
30472;SDS011;17263;48.160;11.452;2023-04-25T06:15:49;3.10;;;2.23;;
30472;SDS011;17263;48.160;11.452;2023-04-25T06:18:15;3.20;;;2.33;;
30472;SDS011;17263;48.160;11.452;2023-04-25T06:20:41;4.87;;;2.60;;
30472;SDS011;17263;48.160;11.452;2023-04-25T06:23:07;5.90;;;2.77;;
30472;SDS011;17263;48.160;11.452;2023-04-25T06:25:33;4.10;;;2.40;;
30472;SDS011;17263;48.160;11.452;2023-04-25T06:27:59;3.40;;;2.50;;
30472;SDS011;17263;48.160;11.452;2023-04-25T06:30:25;4.50;;;2.60;;
30472;SDS011;17263;48.160;11.452;2023-04-25T06:32:52;5.37;;;2.63;;
30472;SDS011;17263;48.160;11.452;2023-04-25T06:35:21;4.70;;;3.23;;
30472;SDS011;17263;48.160;11.452;2023-04-25T06:37:47;5.53;;;3.10;;
30472;SDS011;17263;48.160;11.452;2023-04-25T06:40:13;3.90;;;3.00;;
30472;SDS011;17263;48.160;11.452;2023-04-25T06:42:39;5.63;;;3.07;;
30472;SDS011;17263;48.160;11.452;2023-04-25T06:45:05;5.33;;;3.00;;
30472;SDS011;17263;48.160;11.452;2023-04-25T06:47:31;4.93;;;2.73;;
30472;SDS011;17263;48.160;11.452;2023-04-25T06:49:57;4.67;;;2.90;;
30472;SDS011;17263;48.160;11.452;2023-04-25T06:52:23;4.70;;;2.70;;
30472;SDS011;17263;48.160;11.452;2023-04-25T06:54:49;3.20;;;2.10;;
30472;SDS011;17263;48.160;11.452;2023-04-25T06:57:15;3.80;;;2.20;;
30472;SDS011;17263;48.160;11.452;2023-04-25T06:59:42;3.20;;;2.50;;
30472;SDS011;17263;48.160;11.452;2023-04-25T07:02:08;4.37;;;1.90;;
30472;SDS011;17263;48.160;11.452;2023-04-25T07:04:34;4.97;;;2.20;;
30472;SDS011;17263;48.160;11.452;2023-04-25T07:07:00;2.10;;;1.90;;
30472;SDS011;17263;48.160;11.452;2023-04-25T07:09:28;3.10;;;2.27;;
30472;SDS011;17263;48.160;11.452;2023-04-25T07:11:54;4.47;;;2.43;;
30472;SDS011;17263;48.160;11.452;2023-04-25T07:14:20;3.30;;;2.43;;
30472;SDS011;17263;48.160;11.452;2023-04-25T07:16:46;4.93;;;2.33;;
30472;SDS011;17263;48.160;11.452;2023-04-25T07:19:12;3.73;;;2.13;;
30472;SDS011;17263;48.160;11.452;2023-04-25T07:21:38;2.77;;;2.20;;
30472;SDS011;17263;48.160;11.452;2023-04-25T07:24:04;6.13;;;2.23;;
30472;SDS011;17263;48.160;11.452;2023-04-25T07:26:30;4.77;;;2.10;;
30472;SDS011;17263;48.160;11.452;2023-04-25T07:28:57;5.00;;;2.13;;
30472;SDS011;17263;48.160;11.452;2023-04-25T07:31:23;3.20;;;2.20;;
30472;SDS011;17263;48.160;11.452;2023-04-25T07:33:49;2.97;;;2.27;;
30472;SDS011;17263;48.160;11.452;2023-04-25T07:36:15;4.83;;;2.23;;
30472;SDS011;17263;48.160;11.452;2023-04-25T07:38:41;3.63;;;2.30;;
30472;SDS011;17263;48.160;11.452;2023-04-25T07:41:07;4.20;;;2.57;;
30472;SDS011;17263;48.160;11.452;2023-04-25T07:43:33;4.07;;;2.37;;
30472;SDS011;17263;48.160;11.452;2023-04-25T07:45:59;3.00;;;2.23;;
30472;SDS011;17263;48.160;11.452;2023-04-25T07:48:25;3.70;;;2.30;;
30472;SDS011;17263;48.160;11.452;2023-04-25T07:50:51;2.77;;;2.20;;
30472;SDS011;17263;48.160;11.452;2023-04-25T07:53:17;5.23;;;2.30;;
30472;SDS011;17263;48.160;11.452;2023-04-25T07:55:43;5.57;;;2.40;;
30472;SDS011;17263;48.160;11.452;2023-04-25T07:58:10;2.97;;;2.10;;
30472;SDS011;17263;48.160;11.452;2023-04-25T08:00:37;3.87;;;2.30;;
30472;SDS011;17263;48.160;11.452;2023-04-25T08:03:03;7.13;;;2.50;;
30472;SDS011;17263;48.160;11.452;2023-04-25T08:05:29;3.33;;;2.30;;
30472;SDS011;17263;48.160;11.452;2023-04-25T08:07:55;4.53;;;2.57;;
30472;SDS011;17263;48.160;11.452;2023-04-25T08:10:22;4.33;;;2.00;;
30472;SDS011;17263;48.160;11.452;2023-04-25T08:12:48;3.77;;;2.40;;
30472;SDS011;17263;48.160;11.452;2023-04-25T08:15:14;4.03;;;2.07;;
30472;SDS011;17263;48.160;11.452;2023-04-25T08:17:40;2.97;;;2.00;;
30472;SDS011;17263;48.160;11.452;2023-04-25T08:20:07;3.10;;;2.10;;
30472;SDS011;17263;48.160;11.452;2023-04-25T08:22:34;3.23;;;1.90;;
30472;SDS011;17263;48.160;11.452;2023-04-25T08:25:00;4.83;;;2.10;;
30472;SDS011;17263;48.160;11.452;2023-04-25T08:27:26;3.23;;;2.37;;
30472;SDS011;17263;48.160;11.452;2023-04-25T08:29:52;3.77;;;2.40;;
30472;SDS011;17263;48.160;11.452;2023-04-25T08:32:18;2.70;;;1.80;;
30472;SDS011;17263;48.160;11.452;2023-04-25T08:34:45;4.87;;;1.80;;
30472;SDS011;17263;48.160;11.452;2023-04-25T08:37:11;1.73;;;1.53;;
30472;SDS011;17263;48.160;11.452;2023-04-25T08:39:37;2.60;;;1.70;;
30472;SDS011;17263;48.160;11.452;2023-04-25T08:42:05;4.43;;;1.80;;
30472;SDS011;17263;48.160;11.452;2023-04-25T08:44:34;3.37;;;1.40;;
30472;SDS011;17263;48.160;11.452;2023-04-25T08:47:04;2.43;;;1.40;;
30472;SDS011;17263;48.160;11.452;2023-04-25T08:49:33;1.53;;;1.43;;
30472;SDS011;17263;48.160;11.452;2023-04-25T08:52:01;3.57;;;1.67;;
30472;SDS011;17263;48.160;11.452;2023-04-25T08:54:32;3.13;;;1.80;;
30472;SDS011;17263;48.160;11.452;2023-04-25T08:57:00;3.33;;;1.38;;
30472;SDS011;17263;48.160;11.452;2023-04-25T08:59:27;3.42;;;1.55;;
30472;SDS011;17263;48.160;11.452;2023-04-25T09:01:54;2.33;;;1.30;;
30472;SDS011;17263;48.160;11.452;2023-04-25T09:04:20;1.63;;;1.50;;
30472;SDS011;17263;48.160;11.452;2023-04-25T09:06:47;1.75;;;1.38;;
30472;SDS011;17263;48.160;11.452;2023-04-25T09:09:13;2.58;;;1.50;;
30472;SDS011;17263;48.160;11.452;2023-04-25T09:11:39;7.03;;;1.55;;
30472;SDS011;17263;48.160;11.452;2023-04-25T09:14:13;3.20;;;1.85;;
30472;SDS011;17263;48.160;11.452;2023-04-25T09:17:22;2.00;;;1.40;;
30472;SDS011;17263;48.160;11.452;2023-04-25T09:19:36;3.35;;;2.08;;
30472;SDS011;17263;48.160;11.452;2023-04-25T09:22:05;3.83;;;1.60;;
30472;SDS011;17263;48.160;11.452;2023-04-25T09:24:39;1.60;;;1.50;;
30472;SDS011;17263;48.160;11.452;2023-04-25T09:27:07;4.10;;;1.67;;
30472;SDS011;17263;48.160;11.452;2023-04-25T09:29:38;2.47;;;1.80;;
30472;SDS011;17263;48.160;11.452;2023-04-25T09:32:13;4.33;;;1.80;;
30472;SDS011;17263;48.160;11.452;2023-04-25T09:34:48;2.90;;;1.40;;
30472;SDS011;17263;48.160;11.452;2023-04-25T09:39:53;2.47;;;1.57;;
30472;SDS011;17263;48.160;11.452;2023-04-25T09:42:23;6.20;;;1.70;;
30472;SDS011;17263;48.160;11.452;2023-04-25T09:44:55;2.13;;;1.60;;
30472;SDS011;17263;48.160;11.452;2023-04-25T09:47:25;4.50;;;1.67;;
30472;SDS011;17263;48.160;11.452;2023-04-25T09:49:54;3.97;;;1.60;;
30472;SDS011;17263;48.160;11.452;2023-04-25T09:52:21;2.93;;;1.60;;
30472;SDS011;17263;48.160;11.452;2023-04-25T09:54:48;1.60;;;1.50;;
30472;SDS011;17263;48.160;11.452;2023-04-25T09:57:21;2.00;;;1.63;;
30472;SDS011;17263;48.160;11.452;2023-04-25T09:59:49;3.87;;;1.90;;
30472;SDS011;17263;48.160;11.452;2023-04-25T10:02:23;2.33;;;1.50;;
30472;SDS011;17263;48.160;11.452;2023-04-25T10:04:52;2.20;;;1.70;;
30472;SDS011;17263;48.160;11.452;2023-04-25T10:07:24;4.57;;;1.80;;
30472;SDS011;17263;48.160;11.452;2023-04-25T10:09:54;3.03;;;1.80;;
30472;SDS011;17263;48.160;11.452;2023-04-25T10:12:28;2.87;;;1.80;;
30472;SDS011;17263;48.160;11.452;2023-04-25T10:14:57;2.33;;;1.73;;
30472;SDS011;17263;48.160;11.452;2023-04-25T10:17:24;2.13;;;1.40;;
30472;SDS011;17263;48.160;11.452;2023-04-25T10:19:53;3.20;;;1.40;;
30472;SDS011;17263;48.160;11.452;2023-04-25T10:22:26;3.23;;;1.50;;
30472;SDS011;17263;48.160;11.452;2023-04-25T10:24:58;2.00;;;1.80;;
30472;SDS011;17263;48.160;11.452;2023-04-25T10:27:26;2.63;;;1.70;;
30472;SDS011;17263;48.160;11.452;2023-04-25T10:32:41;2.53;;;1.47;;
30472;SDS011;17263;48.160;11.452;2023-04-25T10:35:18;2.17;;;1.30;;
30472;SDS011;17263;48.160;11.452;2023-04-25T10:37:56;2.13;;;1.30;;
30472;SDS011;17263;48.160;11.452;2023-04-25T10:40:23;2.13;;;1.20;;
30472;SDS011;17263;48.160;11.452;2023-04-25T10:42:53;1.33;;;1.10;;
30472;SDS011;17263;48.160;11.452;2023-04-25T10:45:20;1.43;;;1.10;;
30472;SDS011;17263;48.160;11.452;2023-04-25T10:47:46;3.57;;;1.60;;
30472;SDS011;17263;48.160;11.452;2023-04-25T10:50:14;5.03;;;1.70;;
30472;SDS011;17263;48.160;11.452;2023-04-25T10:52:41;2.40;;;1.60;;
30472;SDS011;17263;48.160;11.452;2023-04-25T10:55:08;2.07;;;1.40;;
30472;SDS011;17263;48.160;11.452;2023-04-25T11:00:15;3.03;;;1.53;;
30472;SDS011;17263;48.160;11.452;2023-04-25T11:02:47;2.10;;;1.37;;
30472;SDS011;17263;48.160;11.452;2023-04-25T11:08:00;2.53;;;1.57;;
30472;SDS011;17263;48.160;11.452;2023-04-25T11:10:28;2.53;;;1.33;;
30472;SDS011;17263;48.160;11.452;2023-04-25T11:12:55;2.23;;;1.30;;
30472;SDS011;17263;48.160;11.452;2023-04-25T11:15:22;2.07;;;1.40;;
30472;SDS011;17263;48.160;11.452;2023-04-25T11:17:50;1.87;;;1.10;;
30472;SDS011;17263;48.160;11.452;2023-04-25T11:20:17;4.10;;;1.40;;
30472;SDS011;17263;48.160;11.452;2023-04-25T11:22:44;2.47;;;1.20;;
30472;SDS011;17263;48.160;11.452;2023-04-25T11:25:12;2.53;;;1.30;;
30472;SDS011;17263;48.160;11.452;2023-04-25T11:28:00;1.40;;;1.30;;
30472;SDS011;17263;48.160;11.452;2023-04-25T11:30:28;1.50;;;1.40;;
30472;SDS011;17263;48.160;11.452;2023-04-25T11:32:56;2.00;;;1.57;;
30472;SDS011;17263;48.160;11.452;2023-04-25T11:35:22;2.10;;;1.27;;
30472;SDS011;17263;48.160;11.452;2023-04-25T11:37:48;2.20;;;1.50;;
30472;SDS011;17263;48.160;11.452;2023-04-25T11:40:15;1.97;;;1.37;;
30472;SDS011;17263;48.160;11.452;2023-04-25T11:42:45;2.93;;;1.60;;
30472;SDS011;17263;48.160;11.452;2023-04-25T11:45:12;3.70;;;1.73;;
30472;SDS011;17263;48.160;11.452;2023-04-25T11:47:39;2.90;;;2.03;;
30472;SDS011;17263;48.160;11.452;2023-04-25T11:50:06;2.70;;;1.53;;
30472;SDS011;17263;48.160;11.452;2023-04-25T11:52:37;5.03;;;1.27;;
30472;SDS011;17263;48.160;11.452;2023-04-25T11:55:05;1.23;;;1.13;;
30472;SDS011;17263;48.160;11.452;2023-04-25T11:57:41;1.37;;;1.27;;
30472;SDS011;17263;48.160;11.452;2023-04-25T12:02:46;1.37;;;1.23;;
30472;SDS011;17263;48.160;11.452;2023-04-25T12:05:16;2.13;;;1.27;;
30472;SDS011;17263;48.160;11.452;2023-04-25T12:07:42;2.20;;;1.27;;
30472;SDS011;17263;48.160;11.452;2023-04-25T12:10:08;1.40;;;1.17;;
30472;SDS011;17263;48.160;11.452;2023-04-25T12:12:36;1.87;;;1.17;;
30472;SDS011;17263;48.160;11.452;2023-04-25T12:15:12;1.27;;;0.90;;
30472;SDS011;17263;48.160;11.452;2023-04-25T12:17:45;1.20;;;1.10;;
30472;SDS011;17263;48.160;11.452;2023-04-25T12:20:14;0.97;;;0.97;;
30472;SDS011;17263;48.160;11.452;2023-04-25T12:22:42;0.93;;;0.90;;
30472;SDS011;17263;48.160;11.452;2023-04-25T12:25:11;2.50;;;1.17;;
30472;SDS011;17263;48.160;11.452;2023-04-25T12:27:38;0.93;;;0.93;;
30472;SDS011;17263;48.160;11.452;2023-04-25T12:30:09;1.30;;;1.20;;
30472;SDS011;17263;48.160;11.452;2023-04-25T12:32:36;1.80;;;1.03;;
30472;SDS011;17263;48.160;11.452;2023-04-25T12:35:04;2.60;;;0.97;;
30472;SDS011;17263;48.160;11.452;2023-04-25T12:37:31;1.53;;;1.20;;
30472;SDS011;17263;48.160;11.452;2023-04-25T12:39:57;0.90;;;0.90;;
30472;SDS011;17263;48.160;11.452;2023-04-25T12:42:23;1.40;;;1.10;;
30472;SDS011;17263;48.160;11.452;2023-04-25T12:44:49;1.37;;;1.27;;
30472;SDS011;17263;48.160;11.452;2023-04-25T12:47:15;1.73;;;1.10;;
30472;SDS011;17263;48.160;11.452;2023-04-25T12:49:41;1.20;;;1.10;;
30472;SDS011;17263;48.160;11.452;2023-04-25T12:52:07;1.37;;;1.00;;
30472;SDS011;17263;48.160;11.452;2023-04-25T12:54:33;1.50;;;1.10;;
30472;SDS011;17263;48.160;11.452;2023-04-25T12:57:00;1.27;;;0.90;;
30472;SDS011;17263;48.160;11.452;2023-04-25T12:59:28;1.10;;;1.00;;
30472;SDS011;17263;48.160;11.452;2023-04-25T13:01:54;0.80;;;0.80;;
30472;SDS011;17263;48.160;11.452;2023-04-25T13:04:20;1.10;;;0.90;;
30472;SDS011;17263;48.160;11.452;2023-04-25T13:06:46;1.53;;;1.10;;
30472;SDS011;17263;48.160;11.452;2023-04-25T13:09:12;1.13;;;1.00;;
30472;SDS011;17263;48.160;11.452;2023-04-25T13:11:38;1.10;;;0.90;;
30472;SDS011;17263;48.160;11.452;2023-04-25T13:14:06;1.40;;;1.07;;
30472;SDS011;17263;48.160;11.452;2023-04-25T13:16:32;1.73;;;1.13;;
30472;SDS011;17263;48.160;11.452;2023-04-25T13:18:58;1.10;;;1.00;;
30472;SDS011;17263;48.160;11.452;2023-04-25T13:21:24;2.37;;;1.10;;
30472;SDS011;17263;48.160;11.452;2023-04-25T13:23:50;1.20;;;1.10;;
30472;SDS011;17263;48.160;11.452;2023-04-25T13:26:16;1.20;;;1.10;;
30472;SDS011;17263;48.160;11.452;2023-04-25T13:28:42;1.43;;;1.33;;
30472;SDS011;17263;48.160;11.452;2023-04-25T13:31:08;1.73;;;1.40;;
30472;SDS011;17263;48.160;11.452;2023-04-25T13:33:34;1.30;;;1.20;;
30472;SDS011;17263;48.160;11.452;2023-04-25T13:36:00;1.70;;;1.20;;
30472;SDS011;17263;48.160;11.452;2023-04-25T13:38:26;1.63;;;1.40;;
30472;SDS011;17263;48.160;11.452;2023-04-25T13:40:52;1.10;;;1.00;;
30472;SDS011;17263;48.160;11.452;2023-04-25T13:43:19;1.50;;;1.20;;
30472;SDS011;17263;48.160;11.452;2023-04-25T13:45:47;1.00;;;1.00;;
30472;SDS011;17263;48.160;11.452;2023-04-25T13:48:14;1.40;;;1.30;;
30472;SDS011;17263;48.160;11.452;2023-04-25T13:50:40;1.27;;;1.17;;
30472;SDS011;17263;48.160;11.452;2023-04-25T13:53:06;2.30;;;1.50;;
30472;SDS011;17263;48.160;11.452;2023-04-25T13:55:33;2.03;;;1.40;;
30472;SDS011;17263;48.160;11.452;2023-04-25T13:58:00;2.23;;;1.27;;
30472;SDS011;17263;48.160;11.452;2023-04-25T14:00:33;2.03;;;1.67;;
30472;SDS011;17263;48.160;11.452;2023-04-25T14:03:00;1.37;;;1.27;;
30472;SDS011;17263;48.160;11.452;2023-04-25T14:05:30;1.23;;;1.13;;
30472;SDS011;17263;48.160;11.452;2023-04-25T14:07:56;1.33;;;1.23;;
30472;SDS011;17263;48.160;11.452;2023-04-25T14:10:26;1.20;;;1.10;;
30472;SDS011;17263;48.160;11.452;2023-04-25T14:12:52;1.80;;;1.10;;
30472;SDS011;17263;48.160;11.452;2023-04-25T14:15:19;0.90;;;0.90;;
30472;SDS011;17263;48.160;11.452;2023-04-25T14:17:46;1.10;;;1.00;;
30472;SDS011;17263;48.160;11.452;2023-04-25T14:20:13;2.20;;;0.90;;
30472;SDS011;17263;48.160;11.452;2023-04-25T14:22:40;1.17;;;1.00;;
30472;SDS011;17263;48.160;11.452;2023-04-25T14:25:09;1.20;;;1.10;;
30472;SDS011;17263;48.160;11.452;2023-04-25T14:27:35;1.13;;;1.03;;
30472;SDS011;17263;48.160;11.452;2023-04-25T14:30:02;1.40;;;1.13;;
30472;SDS011;17263;48.160;11.452;2023-04-25T14:32:30;0.93;;;0.93;;
30472;SDS011;17263;48.160;11.452;2023-04-25T14:34:57;2.20;;;0.90;;
30472;SDS011;17263;48.160;11.452;2023-04-25T14:37:24;0.87;;;0.80;;
30472;SDS011;17263;48.160;11.452;2023-04-25T14:39:50;0.90;;;0.70;;
30472;SDS011;17263;48.160;11.452;2023-04-25T14:42:16;1.17;;;0.77;;
30472;SDS011;17263;48.160;11.452;2023-04-25T14:44:42;0.80;;;0.80;;
30472;SDS011;17263;48.160;11.452;2023-04-25T14:47:08;0.77;;;0.77;;